createdAt,value
2022-10-18T00:00:49.628Z,63.54
2022-10-18T00:03:32.806Z,63.76
2022-10-18T00:06:15.760Z,63.76
2022-10-18T00:08:58.614Z,63.71
2022-10-18T00:11:41.879Z,63.72
2022-10-18T00:14:26.368Z,63.69
2022-10-18T00:17:09.249Z,63.73
2022-10-18T00:19:52.203Z,63.58
2022-10-18T00:22:35.720Z,63.80
2022-10-18T00:25:19.259Z,63.94
2022-10-18T00:28:02.144Z,64.12
2022-10-18T00:30:46.441Z,64.11
2022-10-18T00:33:29.305Z,64.11
2022-10-18T00:36:12.924Z,64.02
2022-10-18T00:38:56.006Z,64.31
2022-10-18T00:41:39.567Z,64.33
2022-10-18T00:44:59.814Z,64.64
2022-10-18T00:47:46.756Z,64.54
2022-10-18T00:50:33.579Z,64.84
2022-10-18T00:53:19.695Z,64.75
2022-10-18T00:56:02.707Z,64.82
2022-10-18T00:58:46.586Z,64.85
2022-10-18T01:01:29.513Z,64.97
2022-10-18T01:04:14.757Z,64.97
2022-10-18T01:07:02.828Z,65.15
2022-10-18T01:09:54.589Z,65.21
2022-10-18T01:12:50.167Z,65.37
2022-10-18T01:15:38.189Z,65.25
2022-10-18T01:18:28.668Z,65.20
2022-10-18T01:21:21.354Z,65.17
2022-10-18T01:24:35.046Z,65.23
2022-10-18T01:27:36.627Z,65.12
2022-10-18T01:30:48.284Z,65.06
2022-10-18T01:33:38.922Z,64.99
2022-10-18T01:36:24.404Z,65.03
2022-10-18T01:39:11.031Z,65.08
2022-10-18T01:41:56.280Z,64.98
2022-10-18T01:44:42.290Z,64.99
2022-10-18T01:47:28.354Z,65.12
2022-10-18T01:50:11.571Z,65.01
2022-10-18T01:52:54.400Z,64.97
2022-10-18T01:55:44.212Z,65.12
2022-10-18T01:58:35.879Z,65.10
2022-10-18T02:01:24.567Z,65.05
2022-10-18T02:04:20.316Z,64.97
2022-10-18T02:07:10.618Z,65.12
2022-10-18T02:10:02.352Z,65.15
2022-10-18T02:12:47.727Z,65.25
2022-10-18T02:15:34.841Z,65.13
2022-10-18T02:18:21.644Z,65.25
2022-10-18T02:21:09.239Z,65.11
2022-10-18T02:23:53.501Z,65.26
2022-10-18T02:26:36.855Z,65.42
2022-10-18T02:29:19.800Z,65.46
2022-10-18T02:32:07.732Z,65.10
2022-10-18T02:34:57.826Z,65.32
2022-10-18T02:37:44.189Z,65.18
2022-10-18T02:40:27.647Z,64.94
2022-10-18T02:43:10.492Z,65.03
2022-10-18T02:45:53.526Z,65.08
2022-10-18T02:48:36.362Z,65.22
2022-10-18T02:51:19.241Z,65.11
2022-10-18T02:54:03.517Z,65.29
2022-10-18T02:56:46.376Z,65.23
2022-10-18T02:59:29.217Z,65.28
2022-10-18T03:02:12.059Z,65.22
2022-10-18T03:04:55.032Z,65.30
2022-10-18T03:07:37.858Z,65.30
2022-10-18T03:10:22.044Z,65.35
2022-10-18T03:13:04.910Z,65.32
2022-10-18T03:15:48.055Z,65.56
2022-10-18T03:18:30.985Z,65.51
2022-10-18T03:21:14.047Z,65.48
2022-10-18T03:23:58.656Z,65.47
2022-10-18T03:26:42.827Z,65.50
2022-10-18T03:29:25.670Z,65.42
2022-10-18T03:32:08.510Z,65.63
2022-10-18T03:34:51.343Z,65.60
2022-10-18T03:37:34.265Z,65.37
2022-10-18T03:40:17.340Z,65.44
2022-10-18T03:43:01.583Z,65.32
2022-10-18T03:45:44.545Z,65.27
2022-10-18T03:48:27.414Z,65.12
2022-10-18T03:51:10.254Z,65.06
2022-10-18T03:53:53.082Z,65.20
2022-10-18T03:56:36.011Z,64.97
2022-10-18T03:59:20.348Z,64.98
2022-10-18T04:02:03.200Z,64.77
2022-10-18T04:04:46.140Z,64.65
2022-10-18T04:07:29.020Z,64.58
2022-10-18T04:10:11.901Z,64.65
2022-10-18T04:12:55.212Z,64.59
2022-10-18T04:15:39.492Z,64.60
2022-10-18T04:18:22.326Z,64.58
2022-10-18T04:21:05.464Z,64.66
2022-10-18T04:23:48.572Z,64.66
2022-10-18T04:26:31.433Z,64.61
2022-10-18T04:29:14.233Z,64.73
2022-10-18T04:31:58.441Z,64.77
2022-10-18T04:37:29.215Z,64.89
2022-10-18T04:40:13.219Z,64.63
2022-10-18T04:42:56.798Z,64.64
2022-10-18T04:45:39.602Z,64.57
2022-10-18T04:48:23.775Z,64.49
2022-10-18T04:51:06.960Z,64.70
2022-10-18T04:53:49.777Z,64.75
2022-10-18T04:56:32.771Z,64.50
2022-10-18T04:59:15.616Z,64.69
2022-10-18T05:01:58.504Z,64.57
2022-10-18T05:04:42.768Z,64.66
2022-10-18T05:07:25.618Z,64.82
2022-10-18T05:10:09.391Z,64.89
2022-10-18T05:12:52.279Z,65.02
2022-10-18T05:15:35.097Z,64.73
2022-10-18T05:18:18.017Z,64.66
2022-10-18T05:21:02.233Z,64.65
2022-10-18T05:23:45.084Z,64.73
2022-10-18T05:26:28.107Z,64.94
2022-10-18T05:29:11.044Z,65.06
2022-10-18T05:31:53.895Z,65.01
2022-10-18T05:34:36.729Z,65.28
2022-10-18T05:37:26.014Z,65.43
2022-10-18T05:40:12.059Z,65.30
2022-10-18T05:42:54.951Z,65.44
2022-10-18T05:45:37.786Z,65.41
2022-10-18T05:48:20.634Z,65.36
2022-10-18T05:51:03.611Z,65.40
2022-10-18T05:53:47.789Z,65.00
2022-10-18T05:56:30.730Z,65.15
2022-10-18T05:59:13.740Z,65.27
2022-10-18T06:01:56.556Z,65.28
2022-10-18T06:04:39.382Z,65.02
2022-10-18T06:07:22.230Z,65.08
2022-10-18T06:10:07.531Z,65.04
2022-10-18T06:12:50.411Z,64.99
2022-10-18T06:15:33.249Z,65.08
2022-10-18T06:18:16.105Z,64.84
2022-10-18T06:21:00.003Z,65.16
2022-10-18T06:23:42.889Z,65.26
2022-10-18T06:26:28.517Z,65.27
2022-10-18T06:29:11.588Z,65.29
2022-10-18T06:31:54.473Z,65.05
2022-10-18T06:34:37.387Z,65.15
2022-10-18T06:37:20.287Z,65.12
2022-10-18T06:40:03.115Z,65.58
2022-10-18T06:42:59.917Z,66.08
2022-10-18T06:45:48.867Z,66.41
2022-10-18T06:48:32.535Z,66.59
2022-10-18T06:51:16.204Z,66.50
2022-10-18T06:54:13.422Z,66.72
2022-10-18T06:57:02.544Z,66.69
2022-10-18T06:59:46.773Z,66.74
2022-10-18T07:02:29.792Z,66.76
2022-10-18T07:05:12.869Z,66.98
2022-10-18T07:07:56.489Z,66.88
2022-10-18T07:10:39.530Z,66.99
2022-10-18T07:13:38.333Z,67.13
2022-10-18T07:16:22.629Z,67.22
2022-10-18T07:19:05.494Z,67.15
2022-10-18T07:21:48.333Z,67.25
2022-10-18T07:24:31.187Z,67.13
2022-10-18T07:27:14.075Z,67.58
2022-10-18T07:29:56.856Z,67.30
2022-10-18T07:32:41.063Z,67.17
2022-10-18T07:35:23.865Z,67.38
2022-10-18T07:38:06.760Z,67.24
2022-10-18T07:40:49.618Z,67.37
2022-10-18T07:43:32.449Z,67.21
2022-10-18T07:46:16.466Z,67.27
2022-10-18T07:49:00.710Z,67.19
2022-10-18T07:51:43.526Z,67.56
2022-10-18T07:54:26.357Z,67.39
2022-10-18T07:57:09.202Z,67.09
2022-10-18T07:59:56.412Z,66.87
2022-10-18T08:02:40.105Z,66.96
2022-10-18T08:05:24.339Z,66.90
2022-10-18T08:08:08.162Z,66.88
2022-10-18T08:10:51.572Z,66.96
2022-10-18T08:13:34.742Z,66.72
2022-10-18T08:16:21.395Z,66.89
2022-10-18T08:19:10.002Z,67.06
2022-10-18T08:21:54.378Z,66.85
2022-10-18T08:24:37.458Z,66.48
2022-10-18T08:27:20.301Z,66.29
2022-10-18T08:30:03.112Z,65.95
2022-10-18T08:32:46.082Z,66.02
2022-10-18T08:35:29.087Z,65.98
2022-10-18T08:38:17.976Z,65.89
2022-10-18T08:41:15.672Z,65.51
2022-10-18T08:44:07.503Z,65.48
2022-10-18T08:46:52.985Z,65.59
2022-10-18T08:49:45.615Z,64.94
2022-10-18T08:52:36.554Z,64.81
2022-10-18T08:55:26.028Z,65.33
2022-10-18T08:58:18.174Z,65.12
2022-10-18T09:01:15.606Z,65.15
2022-10-18T09:04:23.725Z,64.72
2022-10-18T09:07:23.501Z,64.45
2022-10-18T09:10:20.502Z,64.44
2022-10-18T09:13:22.473Z,64.21
2022-10-18T09:16:07.088Z,64.08
2022-10-18T09:19:00.926Z,64.22
2022-10-18T09:21:52.314Z,63.79
2022-10-18T09:24:41.292Z,62.64
2022-10-18T09:27:34.326Z,62.53
2022-10-18T09:30:35.597Z,61.91
2022-10-18T09:33:29.899Z,61.52
2022-10-18T09:36:18.737Z,62.14
2022-10-18T09:39:05.650Z,61.11
2022-10-18T09:41:53.242Z,61.01
2022-10-18T09:44:40.710Z,60.94
2022-10-18T09:47:28.642Z,60.97
2022-10-18T09:50:24.158Z,60.07
2022-10-18T09:53:14.208Z,59.46
2022-10-18T09:56:02.236Z,59.74
2022-10-18T09:58:47.139Z,59.70
2022-10-18T10:01:31.072Z,57.96
2022-10-18T10:04:15.470Z,58.88
2022-10-18T10:07:01.450Z,58.49
2022-10-18T10:09:47.321Z,57.98
2022-10-18T10:12:32.684Z,58.21
2022-10-18T10:15:22.800Z,57.99
2022-10-18T10:18:18.744Z,57.72
2022-10-18T10:21:06.376Z,57.55
2022-10-18T10:23:54.904Z,57.77
2022-10-18T10:26:38.916Z,57.81
2022-10-18T10:29:49.867Z,57.46
2022-10-18T10:32:45.955Z,57.95
2022-10-18T10:35:53.591Z,58.09
2022-10-18T10:38:38.225Z,58.57
2022-10-18T10:41:23.486Z,58.45
2022-10-18T10:44:16.442Z,58.96
2022-10-18T10:47:00.373Z,58.91
2022-10-18T10:49:44.861Z,59.29
2022-10-18T10:52:29.740Z,59.54
2022-10-18T10:55:34.465Z,59.44
2022-10-18T10:58:19.348Z,58.88
2022-10-18T11:01:19.727Z,58.79
2022-10-18T11:04:04.870Z,58.82
2022-10-18T11:06:56.450Z,59.09
2022-10-18T11:09:49.251Z,58.57
2022-10-18T11:12:37.637Z,58.92
2022-10-18T11:15:26.652Z,58.68
2022-10-18T11:18:17.299Z,58.38
2022-10-18T11:21:08.033Z,58.68
2022-10-18T11:23:51.081Z,58.87
2022-10-18T11:26:43.746Z,59.10
2022-10-18T11:29:41.235Z,58.49
2022-10-18T11:32:34.984Z,58.50
2022-10-18T11:35:34.887Z,58.72
2022-10-18T11:38:31.778Z,58.80
2022-10-18T11:41:35.613Z,58.30
2022-10-18T11:44:28.537Z,58.95
2022-10-18T11:47:21.724Z,58.67
2022-10-18T11:50:13.779Z,58.21
2022-10-18T11:53:08.291Z,57.41
2022-10-18T11:56:02.000Z,57.42
2022-10-18T11:58:56.907Z,57.09
2022-10-18T12:01:45.049Z,55.98
2022-10-18T12:04:38.487Z,55.78
2022-10-18T12:07:29.006Z,55.95
2022-10-18T12:10:26.241Z,55.71
2022-10-18T12:13:26.623Z,55.23
2022-10-18T12:16:11.238Z,55.02
2022-10-18T12:18:56.986Z,54.51
2022-10-18T12:21:42.303Z,54.47
2022-10-18T12:24:28.724Z,54.37
2022-10-18T12:27:15.903Z,53.92
2022-10-18T12:30:03.565Z,54.12
2022-10-18T12:33:03.494Z,53.68
2022-10-18T12:36:06.817Z,53.21
2022-10-18T12:38:55.652Z,53.02
2022-10-18T12:41:38.685Z,53.09
2022-10-18T12:44:25.442Z,52.77
2022-10-18T12:47:08.390Z,52.70
2022-10-18T12:49:58.801Z,51.89
2022-10-18T12:52:42.100Z,52.21
2022-10-18T12:55:31.756Z,51.93
2022-10-18T12:58:27.144Z,52.17
2022-10-18T13:01:10.031Z,52.15
2022-10-18T13:03:56.210Z,52.04
2022-10-18T13:07:11.695Z,52.15
2022-10-18T13:10:38.167Z,51.95
2022-10-18T13:13:46.882Z,52.05
2022-10-18T13:16:43.941Z,52.02
2022-10-18T13:19:35.197Z,52.19
2022-10-18T13:22:32.338Z,52.10
2022-10-18T13:25:22.173Z,52.17
2022-10-18T13:28:22.507Z,52.38
2022-10-18T13:31:19.903Z,52.43
2022-10-18T13:34:25.024Z,52.63
2022-10-18T13:37:24.029Z,52.69
2022-10-18T13:40:23.985Z,52.36
2022-10-18T13:43:40.334Z,52.53
2022-10-18T13:46:26.390Z,52.91
2022-10-18T13:49:32.775Z,53.16
2022-10-18T13:52:25.232Z,53.61
2022-10-18T13:55:34.776Z,53.46
2022-10-18T13:58:26.826Z,53.89
2022-10-18T14:01:23.880Z,54.22
2022-10-18T14:04:40.822Z,54.51
2022-10-18T14:07:27.984Z,54.90
2022-10-18T14:10:18.648Z,55.59
2022-10-18T14:13:03.920Z,55.71
2022-10-18T14:15:50.643Z,55.63
2022-10-18T14:18:37.503Z,57.32
2022-10-18T14:21:31.135Z,56.80
2022-10-18T14:24:21.134Z,57.19
2022-10-18T14:27:20.972Z,57.55
2022-10-18T14:30:14.766Z,57.77
2022-10-18T14:32:59.541Z,57.54
2022-10-18T14:35:42.247Z,58.64
2022-10-18T14:38:26.657Z,58.24
2022-10-18T14:41:16.508Z,58.41
2022-10-18T14:44:18.531Z,58.94
2022-10-18T14:47:03.724Z,58.78
2022-10-18T14:49:47.514Z,59.31
2022-10-18T14:52:35.639Z,59.12
2022-10-18T14:55:24.457Z,59.98
2022-10-18T14:58:15.162Z,60.49
2022-10-18T15:00:59.283Z,60.50
2022-10-18T15:03:42.252Z,61.24
2022-10-18T15:06:25.238Z,60.98
2022-10-18T15:09:08.183Z,60.83
2022-10-18T15:11:54.805Z,61.05
2022-10-18T15:14:38.725Z,61.15
2022-10-18T15:17:25.799Z,61.17
2022-10-18T15:20:22.048Z,61.15
2022-10-18T15:23:23.191Z,61.87
2022-10-18T15:26:09.023Z,61.47
2022-10-18T15:28:56.719Z,61.61
2022-10-18T15:31:42.950Z,61.75
2022-10-18T15:34:27.724Z,61.95
2022-10-18T15:37:18.241Z,63.07
2022-10-18T15:40:34.577Z,62.98
2022-10-18T15:43:37.808Z,62.85
2022-10-18T15:46:33.341Z,63.49
2022-10-18T15:49:50.946Z,63.80
2022-10-18T15:52:39.222Z,63.68
2022-10-18T15:55:53.625Z,64.11
2022-10-18T15:58:42.790Z,63.85
2022-10-18T16:01:33.870Z,63.72
2022-10-18T16:04:21.138Z,64.20
2022-10-18T16:07:04.027Z,64.09
2022-10-18T16:09:47.003Z,63.93
2022-10-18T16:12:29.824Z,64.04
2022-10-18T16:15:13.528Z,64.06
2022-10-18T16:17:58.162Z,64.27
2022-10-18T16:20:41.052Z,64.89
2022-10-18T16:23:25.988Z,64.44
2022-10-18T16:26:10.240Z,64.57
2022-10-18T16:28:54.423Z,65.03
2022-10-18T16:31:37.403Z,65.07
2022-10-18T16:34:21.713Z,65.60
2022-10-18T16:37:04.570Z,65.50
2022-10-18T16:39:47.407Z,65.64
2022-10-18T16:42:30.518Z,65.64
2022-10-18T16:45:13.578Z,65.64
2022-10-18T16:47:56.407Z,65.92
2022-10-18T16:50:40.619Z,66.08
2022-10-18T16:53:25.094Z,66.13
2022-10-18T16:56:14.512Z,66.65
2022-10-18T16:58:57.871Z,66.55
2022-10-18T17:01:40.772Z,66.95
2022-10-18T17:04:23.941Z,66.76
2022-10-18T17:07:10.140Z,66.81
2022-10-18T17:09:52.969Z,67.08
2022-10-18T17:12:35.920Z,67.40
2022-10-18T17:15:19.692Z,67.44
2022-10-18T17:18:03.919Z,67.79
2022-10-18T17:20:46.889Z,67.67
2022-10-18T17:23:31.843Z,68.30
2022-10-18T17:26:28.447Z,67.72
2022-10-18T17:29:12.891Z,68.01
2022-10-18T17:31:55.786Z,68.40
2022-10-18T17:34:38.730Z,68.67
2022-10-18T17:37:21.648Z,68.45
2022-10-18T17:40:07.108Z,68.63
2022-10-18T17:42:50.014Z,68.13
2022-10-18T17:45:32.947Z,68.46
2022-10-18T17:48:15.881Z,68.64
2022-10-18T17:50:58.790Z,68.56
2022-10-18T17:53:41.638Z,68.55
2022-10-18T17:56:30.992Z,68.48
2022-10-18T17:59:14.030Z,68.77
2022-10-18T18:01:56.845Z,68.91
2022-10-18T18:04:39.818Z,68.80
2022-10-18T18:07:22.596Z,68.93
2022-10-18T18:10:06.023Z,68.81
2022-10-18T18:12:50.218Z,68.98
2022-10-18T18:15:33.079Z,69.09
2022-10-18T18:18:15.947Z,68.99
2022-10-18T18:20:58.764Z,69.14
2022-10-18T18:23:41.734Z,69.32
2022-10-18T18:26:25.381Z,69.50
2022-10-18T18:29:09.619Z,69.54
2022-10-18T18:31:52.771Z,69.52
2022-10-18T18:34:36.604Z,69.72
2022-10-18T18:37:19.470Z,69.46
2022-10-18T18:40:02.297Z,69.71
2022-10-18T18:42:56.759Z,69.64
2022-10-18T18:45:52.967Z,69.46
2022-10-18T18:48:37.286Z,69.76
2022-10-18T18:51:21.769Z,69.65
2022-10-18T18:54:05.401Z,69.82
2022-10-18T18:56:48.259Z,69.90
2022-10-18T18:59:31.056Z,69.96
2022-10-18T19:02:15.263Z,70.03
2022-10-18T19:04:58.180Z,70.03
2022-10-18T19:07:41.069Z,69.99
2022-10-18T19:10:23.893Z,69.74
2022-10-18T19:13:06.744Z,69.96
2022-10-18T19:15:49.572Z,69.84
2022-10-18T19:18:33.783Z,70.10
2022-10-18T19:21:16.622Z,70.02
2022-10-18T19:23:59.632Z,70.13
2022-10-18T19:26:44.894Z,69.99
2022-10-18T19:29:29.126Z,70.28
2022-10-18T19:32:13.330Z,69.93
2022-10-18T19:34:57.559Z,69.89
2022-10-18T19:37:40.707Z,70.27
2022-10-18T19:40:23.572Z,70.35
2022-10-18T19:43:06.421Z,70.19
2022-10-18T19:45:49.776Z,70.34
2022-10-18T19:48:32.695Z,70.46
2022-10-18T19:51:20.312Z,70.62
2022-10-18T19:54:06.906Z,70.27
2022-10-18T19:56:49.999Z,70.55
2022-10-18T19:59:32.939Z,70.31
2022-10-18T20:02:16.044Z,70.56
2022-10-18T20:04:59.083Z,70.72
2022-10-18T20:07:45.247Z,70.79
2022-10-18T20:10:28.125Z,70.84
2022-10-18T20:13:10.946Z,70.97
2022-10-18T20:15:54.943Z,70.78
2022-10-18T20:18:38.528Z,71.00
2022-10-18T20:21:21.337Z,70.87
2022-10-18T20:24:06.638Z,70.80
2022-10-18T20:26:49.522Z,70.66
2022-10-18T20:29:33.350Z,70.98
2022-10-18T20:32:16.411Z,71.11
2022-10-18T20:34:59.278Z,71.20
2022-10-18T20:37:42.120Z,71.17
2022-10-18T20:40:26.417Z,71.11
2022-10-18T20:43:09.262Z,71.14
2022-10-18T20:45:57.324Z,71.32
2022-10-18T20:48:40.121Z,71.25
2022-10-18T20:51:23.856Z,71.28
2022-10-18T20:54:08.110Z,71.50
2022-10-18T20:56:52.324Z,71.45
2022-10-18T20:59:35.815Z,71.53
2022-10-18T21:02:18.676Z,71.81
2022-10-18T21:05:01.649Z,72.04
2022-10-18T21:07:44.464Z,71.98
2022-10-18T21:10:27.381Z,72.01
2022-10-18T21:13:11.635Z,72.44
2022-10-18T21:15:55.608Z,72.43
2022-10-18T21:18:40.498Z,72.52
2022-10-18T21:21:25.289Z,72.60
2022-10-18T21:24:08.168Z,72.75
2022-10-18T21:26:51.628Z,72.60
2022-10-18T21:29:36.278Z,72.59
2022-10-18T21:32:19.554Z,72.75
2022-10-18T21:35:03.089Z,72.80
2022-10-18T21:37:46.015Z,72.45
2022-10-18T21:40:28.805Z,72.31
2022-10-18T21:43:11.829Z,72.26
2022-10-18T21:46:00.128Z,72.32
2022-10-18T21:48:45.217Z,72.46
2022-10-18T21:51:29.097Z,72.72
2022-10-18T21:54:14.538Z,72.70
2022-10-18T21:56:57.447Z,72.88
2022-10-18T21:59:40.239Z,72.94
2022-10-18T22:02:24.451Z,72.92
2022-10-18T22:05:09.797Z,72.92
2022-10-18T22:07:54.362Z,73.00
2022-10-18T22:10:37.230Z,73.08
2022-10-18T22:13:20.426Z,73.16
2022-10-18T22:16:03.907Z,72.81
2022-10-18T22:18:49.437Z,73.14
2022-10-18T22:21:33.126Z,73.49
2022-10-18T22:24:15.989Z,73.81
2022-10-18T22:26:58.843Z,73.88
2022-10-18T22:29:41.730Z,73.86
2022-10-18T22:32:24.890Z,74.08
2022-10-18T22:35:09.408Z,74.21
2022-10-18T22:37:54.696Z,74.32
2022-10-18T22:40:37.544Z,74.32
2022-10-18T22:43:20.378Z,74.31
2022-10-18T22:46:03.823Z,74.27
2022-10-18T22:48:46.760Z,74.29
2022-10-18T22:51:31.109Z,74.11
2022-10-18T22:54:14.019Z,74.32
2022-10-18T22:56:56.853Z,74.25
2022-10-18T22:59:39.655Z,74.40
2022-10-18T23:02:22.576Z,74.20
2022-10-18T23:05:06.028Z,74.21
2022-10-18T23:07:50.721Z,74.02
2022-10-18T23:10:33.580Z,74.08
2022-10-18T23:13:16.500Z,74.08
2022-10-18T23:16:04.623Z,74.17
2022-10-18T23:18:50.956Z,74.18
2022-10-18T23:21:35.319Z,73.92
2022-10-18T23:24:19.498Z,73.91
2022-10-18T23:27:02.326Z,73.82
2022-10-18T23:29:45.188Z,74.07
2022-10-18T23:32:28.517Z,73.95
2022-10-18T23:35:11.342Z,74.00
2022-10-18T23:37:54.161Z,74.19
2022-10-18T23:40:38.323Z,74.04
2022-10-18T23:43:21.177Z,73.96
2022-10-18T23:46:04.597Z,74.12
2022-10-18T23:48:48.987Z,74.13
2022-10-18T23:51:31.856Z,73.92
2022-10-18T23:54:14.683Z,73.56
2022-10-18T23:56:58.934Z,70.69
2022-10-18T23:59:41.796Z,69.64
